Time;durP1;ratioP1;P1;durP2;ratioP2;P2;SDS_P1;SDS_P2;PMS_P1;PMS_P2;Temp;Humidity;BMP_temperature;BMP_pressure;BME280_temperature;BME280_humidity;BME280_pressure;Samples;Min_cycle;Max_cycle;Signal;HPM_P1;HPM_P2
2023/03/18 00:00:08;;;;;;;12.93;6.28;;;;;;;;;;5014114;28;20033;-70
2023/03/18 00:02:38;;;;;;;15.18;6.95;;;;;;;;;;5014206;28;20553;-70
2023/03/18 00:05:06;;;;;;;16.25;7.60;;;;;;;;;;5014188;28;20033;-70
2023/03/18 00:07:32;;;;;;;12.57;6.38;;;;;;;;;;5014062;28;20098;-70
2023/03/18 00:09:57;;;;;;;11.68;5.63;;;;;;;;;;5013575;28;20422;-70
2023/03/18 00:12:23;;;;;;;12.68;6.47;;;;;;;;;;5013958;28;20479;-70
2023/03/18 00:14:49;;;;;;;13.93;6.68;;;;;;;;;;5013721;28;20490;-69
2023/03/18 00:17:15;;;;;;;15.32;6.70;;;;;;;;;;5013751;28;20029;-69
2023/03/18 00:19:41;;;;;;;17.33;6.70;;;;;;;;;;5013785;28;20088;-68
2023/03/18 00:22:07;;;;;;;11.05;5.55;;;;;;;;;;5013644;28;20116;-69
2023/03/18 00:24:32;;;;;;;15.55;7.55;;;;;;;;;;5013513;28;20034;-69
2023/03/18 00:26:58;;;;;;;14.50;6.95;;;;;;;;;;5013689;28;20060;-69
2023/03/18 00:29:24;;;;;;;11.73;6.10;;;;;;;;;;5013279;28;20025;-69
2023/03/18 00:31:50;;;;;;;10.75;5.50;;;;;;;;;;5013175;28;20113;-68
2023/03/18 00:34:16;;;;;;;13.63;6.03;;;;;;;;;;5013529;28;20112;-69
2023/03/18 00:36:43;;;;;;;11.20;5.15;;;;;;;;;;5013483;28;20034;-69
2023/03/18 00:39:09;;;;;;;15.77;7.18;;;;;;;;;;5012852;28;20071;-69
2023/03/18 00:41:36;;;;;;;9.18;4.97;;;;;;;;;;5013379;28;20029;-69
2023/03/18 00:44:03;;;;;;;9.27;4.30;;;;;;;;;;5013262;28;20037;-69
2023/03/18 00:46:31;;;;;;;10.45;4.10;;;;;;;;;;5001264;28;20039;-69
2023/03/18 00:49:00;;;;;;;11.23;4.85;;;;;;;;;;4993624;28;20062;-69
2023/03/18 00:51:30;;;;;;;19.17;6.50;;;;;;;;;;4993415;28;20124;-69
2023/03/18 00:53:57;;;;;;;14.18;5.50;;;;;;;;;;5008648;28;20483;-69
2023/03/18 00:56:26;;;;;;;8.88;4.88;;;;;;;;;;5012775;28;20030;-69
2023/03/18 00:58:52;;;;;;;9.20;4.60;;;;;;;;;;5012960;28;20034;-69
2023/03/18 01:01:19;;;;;;;15.23;6.78;;;;;;;;;;5013123;28;20026;-69
2023/03/18 01:03:46;;;;;;;9.10;5.22;;;;;;;;;;5013130;28;20513;-68
2023/03/18 01:06:14;;;;;;;14.82;6.53;;;;;;;;;;5012973;28;20030;-67
2023/03/18 01:08:41;;;;;;;15.25;7.30;;;;;;;;;;5012643;28;20025;-69
2023/03/18 01:11:07;;;;;;;11.10;5.90;;;;;;;;;;5012912;28;20068;-69
2023/03/18 01:13:33;;;;;;;8.43;4.25;;;;;;;;;;5011436;28;20038;-69
2023/03/18 01:16:00;;;;;;;14.43;6.38;;;;;;;;;;5010751;28;20048;-69
2023/03/18 01:18:26;;;;;;;16.85;6.72;;;;;;;;;;5012086;28;20030;-68
2023/03/18 01:20:52;;;;;;;16.48;7.28;;;;;;;;;;5012793;28;20026;-68
2023/03/18 01:23:17;;;;;;;15.23;7.18;;;;;;;;;;5011974;28;20480;-67
2023/03/18 01:25:43;;;;;;;17.85;7.13;;;;;;;;;;5012411;28;20073;-68
2023/03/18 01:28:10;;;;;;;13.63;7.07;;;;;;;;;;5012333;28;20033;-67
2023/03/18 01:30:37;;;;;;;12.98;5.85;;;;;;;;;;5012728;28;20030;-68
2023/03/18 01:33:03;;;;;;;16.13;6.95;;;;;;;;;;5012670;28;20087;-67
2023/03/18 01:35:31;;;;;;;15.27;6.32;;;;;;;;;;5012550;28;20026;-70
2023/03/18 01:37:57;;;;;;;11.55;5.72;;;;;;;;;;5012478;28;20033;-68
2023/03/18 01:40:24;;;;;;;13.98;5.93;;;;;;;;;;5014159;28;20041;-68
2023/03/18 01:43:04;;;;;;;9.32;5.28;;;;;;;;;;5016670;28;20383;-68
2023/03/18 01:45:30;;;;;;;15.95;7.88;;;;;;;;;;5016630;28;20109;-68
2023/03/18 01:47:57;;;;;;;12.32;4.72;;;;;;;;;;5016602;28;20049;-68
2023/03/18 01:50:28;;;;;;;13.70;7.07;;;;;;;;;;5016069;28;20034;-68
2023/03/18 01:52:59;;;;;;;12.80;5.82;;;;;;;;;;5023649;28;20029;-68
2023/03/18 01:55:28;;;;;;;9.73;4.88;;;;;;;;;;5036217;28;20049;-68
2023/03/18 01:57:55;;;;;;;9.93;4.97;;;;;;;;;;5036025;28;20034;-71
2023/03/18 02:00:22;;;;;;;14.65;7.38;;;;;;;;;;5036155;28;20033;-68
2023/03/18 02:02:48;;;;;;;12.90;6.03;;;;;;;;;;5025827;28;20052;-68
2023/03/18 02:05:17;;;;;;;15.85;7.10;;;;;;;;;;5016109;28;20058;-68
2023/03/18 02:07:44;;;;;;;11.75;6.72;;;;;;;;;;5016146;28;20452;-68
2023/03/18 02:10:23;;;;;;;16.20;6.85;;;;;;;;;;5016047;28;20041;-68
2023/03/18 02:12:55;;;;;;;12.82;6.50;;;;;;;;;;5016176;28;20471;-68
2023/03/18 02:15:22;;;;;;;14.35;6.57;;;;;;;;;;5015977;28;20440;-68
2023/03/18 02:17:57;;;;;;;16.02;7.25;;;;;;;;;;5015900;28;20036;-68
2023/03/18 02:20:23;;;;;;;11.02;5.07;;;;;;;;;;5015815;28;20026;-68
2023/03/18 02:23:00;;;;;;;18.98;7.43;;;;;;;;;;5015819;28;20029;-68
2023/03/18 02:25:52;;;;;;;11.90;5.68;;;;;;;;;;5015952;28;20030;-68
2023/03/18 02:28:23;;;;;;;11.05;6.45;;;;;;;;;;5015930;28;20105;-68
2023/03/18 02:30:53;;;;;;;13.68;6.47;;;;;;;;;;5015952;28;20030;-68
2023/03/18 02:33:21;;;;;;;12.45;5.65;;;;;;;;;;5011535;28;20029;-68
2023/03/18 02:35:53;;;;;;;12.18;5.70;;;;;;;;;;5004744;28;20082;-68
2023/03/18 02:38:19;;;;;;;12.20;5.78;;;;;;;;;;5007003;28;20095;-68
2023/03/18 02:40:44;;;;;;;11.73;6.15;;;;;;;;;;5010216;28;20422;-68
2023/03/18 02:43:26;;;;;;;14.15;6.53;;;;;;;;;;5012765;28;20038;-68
2023/03/18 02:46:30;;;;;;;11.00;5.57;;;;;;;;;;5011482;28;20149;-68
2023/03/18 02:48:58;;;;;;;13.45;7.03;;;;;;;;;;5007853;28;20355;-68
2023/03/18 02:51:25;;;;;;;16.77;7.53;;;;;;;;;;5004661;28;20433;-68
2023/03/18 02:53:54;;;;;;;17.80;7.53;;;;;;;;;;5005267;28;20109;-68
2023/03/18 02:56:20;;;;;;;14.35;6.85;;;;;;;;;;5004426;28;20033;-68
2023/03/18 02:58:45;;;;;;;12.23;6.03;;;;;;;;;;5005608;28;20026;-68
2023/03/18 03:01:11;;;;;;;18.08;7.57;;;;;;;;;;5003161;28;20022;-68
2023/03/18 03:03:37;;;;;;;10.07;5.30;;;;;;;;;;5004291;28;20078;-68
2023/03/18 03:06:03;;;;;;;15.30;6.50;;;;;;;;;;5004520;28;20030;-68
2023/03/18 03:08:29;;;;;;;6.85;4.25;;;;;;;;;;5002863;28;20081;-68
2023/03/18 03:10:55;;;;;;;4.13;3.03;;;;;;;;;;4997627;28;20026;-68
2023/03/18 03:13:21;;;;;;;17.55;7.47;;;;;;;;;;4995364;28;20030;-68
2023/03/18 03:15:48;;;;;;;9.38;4.50;;;;;;;;;;4995474;28;20027;-68
2023/03/18 03:18:15;;;;;;;12.20;5.47;;;;;;;;;;4995184;28;20494;-68
2023/03/18 03:20:42;;;;;;;15.00;6.35;;;;;;;;;;4995221;28;20452;-68
2023/03/18 03:23:11;;;;;;;17.98;7.45;;;;;;;;;;4995314;28;20088;-68
2023/03/18 03:25:38;;;;;;;11.77;5.63;;;;;;;;;;4995427;28;20026;-70
2023/03/18 03:28:06;;;;;;;11.25;5.03;;;;;;;;;;4995161;28;20487;-68
2023/03/18 03:30:32;;;;;;;10.63;5.32;;;;;;;;;;4995206;28;20034;-68
2023/03/18 03:32:59;;;;;;;9.35;4.50;;;;;;;;;;4994969;28;20030;-68
2023/03/18 03:35:24;;;;;;;14.45;6.10;;;;;;;;;;4995137;28;20034;-68
2023/03/18 03:37:50;;;;;;;11.30;4.93;;;;;;;;;;4994904;28;20034;-68
2023/03/18 03:40:17;;;;;;;11.57;5.88;;;;;;;;;;4995010;28;20030;-70
2023/03/18 03:42:44;;;;;;;13.48;6.68;;;;;;;;;;4994940;28;20109;-68
2023/03/18 03:45:11;;;;;;;14.02;6.85;;;;;;;;;;4994953;28;20034;-68
2023/03/18 03:47:37;;;;;;;12.85;5.90;;;;;;;;;;4994702;28;20026;-68
2023/03/18 03:50:03;;;;;;;13.95;7.40;;;;;;;;;;4994973;28;20100;-71
2023/03/18 03:52:28;;;;;;;14.02;7.22;;;;;;;;;;4998258;28;20041;-68
2023/03/18 03:54:55;;;;;;;10.35;5.45;;;;;;;;;;5014235;28;20034;-68
2023/03/18 03:57:22;;;;;;;16.90;7.80;;;;;;;;;;5014192;28;20026;-68
2023/03/18 03:59:49;;;;;;;16.42;5.32;;;;;;;;;;5013985;28;20037;-68
2023/03/18 04:02:15;;;;;;;10.40;5.35;;;;;;;;;;5013574;28;20022;-71
2023/03/18 04:04:40;;;;;;;13.25;6.70;;;;;;;;;;5013859;28;20310;-68
2023/03/18 04:07:06;;;;;;;13.43;6.35;;;;;;;;;;5014086;28;20026;-68
2023/03/18 04:09:33;;;;;;;10.30;6.22;;;;;;;;;;5014032;28;20391;-68
2023/03/18 04:11:59;;;;;;;9.65;5.30;;;;;;;;;;5013940;28;20040;-67
2023/03/18 04:14:24;;;;;;;15.50;7.10;;;;;;;;;;5014200;28;20030;-68
2023/03/18 04:16:50;;;;;;;13.27;6.18;;;;;;;;;;5013926;28;20018;-68
2023/03/18 04:19:16;;;;;;;15.57;5.45;;;;;;;;;;5013505;28;20033;-67
2023/03/18 04:21:42;;;;;;;12.02;5.82;;;;;;;;;;5013928;28;20382;-68
2023/03/18 04:24:07;;;;;;;16.13;6.70;;;;;;;;;;5013804;28;20026;-68
2023/03/18 04:26:33;;;;;;;13.90;6.47;;;;;;;;;;5013802;28;20030;-68
2023/03/18 04:28:59;;;;;;;8.65;5.28;;;;;;;;;;5013630;28;20092;-68
2023/03/18 04:31:24;;;;;;;12.68;5.32;;;;;;;;;;4995757;28;20475;-68
2023/03/18 04:33:50;;;;;;;10.60;5.70;;;;;;;;;;5013684;28;20022;-67
2023/03/18 04:36:15;;;;;;;12.55;6.40;;;;;;;;;;5013391;28;20026;-67
2023/03/18 04:38:41;;;;;;;11.95;6.70;;;;;;;;;;5013467;28;20036;-68
2023/03/18 04:41:07;;;;;;;9.68;4.22;;;;;;;;;;5013567;28;20069;-67
2023/03/18 04:43:32;;;;;;;17.48;7.05;;;;;;;;;;5013564;28;20061;-68
2023/03/18 04:45:58;;;;;;;8.07;4.10;;;;;;;;;;5013245;28;20086;-68
2023/03/18 04:48:24;;;;;;;13.35;6.07;;;;;;;;;;5013390;28;20033;-68
2023/03/18 04:50:49;;;;;;;11.65;5.93;;;;;;;;;;5013443;28;20038;-68
2023/03/18 04:53:15;;;;;;;13.25;5.95;;;;;;;;;;5023242;28;20030;-68
2023/03/18 04:55:42;;;;;;;8.45;5.22;;;;;;;;;;5033028;28;20038;-68
2023/03/18 04:58:08;;;;;;;16.17;5.75;;;;;;;;;;5032731;28;20036;-67
2023/03/18 05:00:34;;;;;;;16.60;7.10;;;;;;;;;;5032632;28;20025;-68
2023/03/18 05:03:00;;;;;;;14.93;7.20;;;;;;;;;;5032708;28;20053;-68
2023/03/18 05:05:26;;;;;;;13.30;6.60;;;;;;;;;;5032865;28;20049;-68
2023/03/18 05:07:52;;;;;;;18.85;8.13;;;;;;;;;;5032677;28;20107;-69
2023/03/18 05:10:18;;;;;;;11.52;5.28;;;;;;;;;;5032886;28;20121;-69
2023/03/18 05:12:43;;;;;;;13.00;6.30;;;;;;;;;;5032821;28;20030;-69
2023/03/18 05:15:10;;;;;;;10.60;5.82;;;;;;;;;;5031699;28;20026;-69
2023/03/18 05:17:36;;;;;;;14.70;7.22;;;;;;;;;;5032579;28;20021;-68
2023/03/18 05:20:03;;;;;;;12.48;5.82;;;;;;;;;;5032528;28;20036;-68
2023/03/18 05:22:28;;;;;;;8.45;5.40;;;;;;;;;;5032546;28;20108;-69
2023/03/18 05:24:54;;;;;;;13.25;7.45;;;;;;;;;;5032664;28;20033;-69
2023/03/18 05:27:20;;;;;;;15.63;5.63;;;;;;;;;;5032556;28;20113;-69
2023/03/18 05:29:45;;;;;;;15.32;6.55;;;;;;;;;;5032172;28;20549;-69
2023/03/18 05:32:11;;;;;;;5.75;3.88;;;;;;;;;;5032507;28;20100;-69
2023/03/18 05:34:38;;;;;;;7.20;4.65;;;;;;;;;;5032446;28;20025;-69
2023/03/18 05:37:05;;;;;;;7.57;4.60;;;;;;;;;;5032519;28;20029;-69
2023/03/18 05:39:32;;;;;;;16.63;7.40;;;;;;;;;;5032301;28;20482;-69
2023/03/18 05:41:58;;;;;;;15.30;7.10;;;;;;;;;;5032538;28;20105;-69
2023/03/18 05:44:24;;;;;;;14.40;5.90;;;;;;;;;;5032234;28;20433;-69
2023/03/18 05:46:51;;;;;;;13.35;5.78;;;;;;;;;;5032582;28;20040;-69
2023/03/18 05:49:18;;;;;;;13.75;6.47;;;;;;;;;;5032212;28;20061;-69
2023/03/18 05:51:43;;;;;;;12.73;6.80;;;;;;;;;;5032085;28;20489;-69
2023/03/18 05:54:09;;;;;;;12.80;6.05;;;;;;;;;;5032157;28;20169;-69
2023/03/18 05:56:35;;;;;;;8.68;4.72;;;;;;;;;;5032153;28;20128;-69
2023/03/18 05:59:00;;;;;;;11.27;5.80;;;;;;;;;;5032129;28;20033;-69
2023/03/18 06:01:26;;;;;;;12.50;6.28;;;;;;;;;;5032295;28;20488;-69
2023/03/18 06:03:52;;;;;;;16.50;6.97;;;;;;;;;;5032246;28;20029;-69
2023/03/18 06:06:18;;;;;;;16.52;6.75;;;;;;;;;;5032164;28;20430;-69
2023/03/18 06:08:45;;;;;;;14.10;6.95;;;;;;;;;;5032004;28;20033;-69
2023/03/18 06:11:11;;;;;;;14.07;7.28;;;;;;;;;;5031608;28;20057;-69
2023/03/18 06:13:36;;;;;;;14.85;6.70;;;;;;;;;;5032171;28;20493;-69
2023/03/18 06:16:02;;;;;;;12.80;6.63;;;;;;;;;;5032165;28;20029;-69
2023/03/18 06:18:28;;;;;;;12.55;7.55;;;;;;;;;;5031845;28;20371;-69
2023/03/18 06:20:54;;;;;;;9.93;5.63;;;;;;;;;;5032157;28;20037;-68
2023/03/18 06:23:19;;;;;;;15.25;6.85;;;;;;;;;;5032193;28;20026;-68
2023/03/18 06:25:45;;;;;;;12.63;4.90;;;;;;;;;;5032310;28;20060;-69
2023/03/18 06:28:12;;;;;;;7.82;4.63;;;;;;;;;;5035603;28;20040;-69
2023/03/18 06:30:38;;;;;;;13.68;6.68;;;;;;;;;;5035686;28;20021;-69
2023/03/18 06:33:03;;;;;;;13.10;6.25;;;;;;;;;;5035749;28;20029;-69
2023/03/18 06:35:30;;;;;;;12.40;5.93;;;;;;;;;;5035664;28;20101;-69
2023/03/18 06:37:56;;;;;;;13.32;6.97;;;;;;;;;;5035461;28;20036;-69
2023/03/18 06:40:22;;;;;;;17.30;6.63;;;;;;;;;;5035378;28;20034;-69
2023/03/18 06:42:48;;;;;;;14.73;6.65;;;;;;;;;;5035473;28;20034;-69
2023/03/18 06:45:14;;;;;;;10.30;6.60;;;;;;;;;;5017808;28;20022;-69
2023/03/18 06:47:39;;;;;;;11.45;5.85;;;;;;;;;;5035427;28;20049;-69
2023/03/18 06:50:05;;;;;;;16.02;7.43;;;;;;;;;;5017539;28;20471;-68
2023/03/18 06:52:31;;;;;;;11.35;6.47;;;;;;;;;;5035035;28;20038;-69
2023/03/18 06:54:57;;;;;;;17.92;6.97;;;;;;;;;;5034968;28;20064;-68
2023/03/18 06:57:22;;;;;;;10.85;4.63;;;;;;;;;;5035015;28;20427;-68
2023/03/18 06:59:48;;;;;;;11.88;5.88;;;;;;;;;;5035118;28;20045;-69
2023/03/18 07:02:14;;;;;;;12.23;5.65;;;;;;;;;;5035153;28;20462;-69
2023/03/18 07:04:39;;;;;;;12.23;4.78;;;;;;;;;;5035059;28;20105;-68
2023/03/18 07:07:06;;;;;;;10.05;4.95;;;;;;;;;;5034948;28;20447;-69
2023/03/18 07:09:32;;;;;;;12.52;5.22;;;;;;;;;;5034815;28;20609;-69
2023/03/18 07:11:59;;;;;;;13.00;6.38;;;;;;;;;;5034821;28;20036;-69
2023/03/18 07:14:24;;;;;;;15.48;6.07;;;;;;;;;;5035069;28;20033;-69
2023/03/18 07:16:50;;;;;;;14.00;6.53;;;;;;;;;;5034929;28;20029;-69
2023/03/18 07:19:17;;;;;;;11.30;5.70;;;;;;;;;;5034687;28;20033;-70
2023/03/18 07:21:44;;;;;;;10.93;5.43;;;;;;;;;;5034930;28;20033;-69
2023/03/18 07:24:11;;;;;;;11.93;6.28;;;;;;;;;;5034583;28;20483;-69
2023/03/18 07:26:37;;;;;;;13.60;5.78;;;;;;;;;;5034722;28;20025;-69
2023/03/18 07:29:03;;;;;;;12.10;6.03;;;;;;;;;;5034634;28;20030;-70
2023/03/18 07:31:29;;;;;;;14.00;6.63;;;;;;;;;;5034622;28;20364;-69
2023/03/18 07:33:56;;;;;;;10.63;5.18;;;;;;;;;;5034456;28;20029;-70
2023/03/18 07:36:22;;;;;;;12.98;5.78;;;;;;;;;;5034606;28;20048;-69
2023/03/18 07:38:47;;;;;;;17.25;8.23;;;;;;;;;;5033259;28;20043;-70
2023/03/18 07:41:13;;;;;;;12.52;6.38;;;;;;;;;;5034504;28;20380;-70
2023/03/18 07:43:39;;;;;;;12.40;6.63;;;;;;;;;;5034449;28;20026;-70
2023/03/18 07:46:05;;;;;;;8.95;4.32;;;;;;;;;;5009576;28;20085;-69
2023/03/18 07:48:32;;;;;;;14.63;6.72;;;;;;;;;;5007358;28;20054;-70
2023/03/18 07:50:59;;;;;;;12.15;4.85;;;;;;;;;;5000540;28;20046;-69
2023/03/18 07:53:25;;;;;;;11.75;6.13;;;;;;;;;;5005498;28;20438;-69
2023/03/18 07:55:50;;;;;;;15.38;6.57;;;;;;;;;;5014233;28;20052;-69
2023/03/18 07:58:16;;;;;;;10.80;5.82;;;;;;;;;;5013493;28;20030;-69
2023/03/18 08:00:41;;;;;;;13.65;6.30;;;;;;;;;;5003476;28;20050;-70
2023/03/18 08:03:08;;;;;;;10.15;5.80;;;;;;;;;;4987112;28;20113;-70
2023/03/18 08:05:33;;;;;;;14.35;5.78;;;;;;;;;;4986603;28;20026;-70
2023/03/18 08:08:01;;;;;;;10.52;5.18;;;;;;;;;;5003490;28;20038;-69
2023/03/18 08:10:27;;;;;;;11.75;5.65;;;;;;;;;;5002536;28;20073;-69
2023/03/18 08:12:53;;;;;;;13.27;6.05;;;;;;;;;;5004056;28;20025;-69
2023/03/18 08:15:18;;;;;;;12.63;5.85;;;;;;;;;;4986059;28;20064;-69
2023/03/18 08:17:44;;;;;;;12.38;5.68;;;;;;;;;;5002678;28;20018;-68
2023/03/18 08:20:11;;;;;;;11.90;5.30;;;;;;;;;;5004454;28;20164;-68
2023/03/18 08:22:36;;;;;;;11.65;5.35;;;;;;;;;;5001565;28;20068;-69
2023/03/18 08:25:02;;;;;;;11.20;6.15;;;;;;;;;;5002740;28;20483;-69
2023/03/18 08:27:27;;;;;;;13.10;5.47;;;;;;;;;;5008341;28;20040;-69
2023/03/18 08:29:53;;;;;;;9.63;5.20;;;;;;;;;;5013253;28;20045;-69
2023/03/18 08:32:19;;;;;;;12.18;5.38;;;;;;;;;;5002707;28;20033;-69
2023/03/18 08:34:45;;;;;;;8.70;4.95;;;;;;;;;;5015189;28;20033;-69
2023/03/18 08:37:11;;;;;;;11.02;5.50;;;;;;;;;;5014675;28;20026;-69
2023/03/18 08:39:37;;;;;;;13.85;5.90;;;;;;;;;;5008438;28;20117;-69
2023/03/18 08:42:03;;;;;;;10.15;4.90;;;;;;;;;;5005929;28;20061;-69
2023/03/18 08:44:29;;;;;;;9.35;4.90;;;;;;;;;;5007784;28;20037;-70
2023/03/18 08:46:56;;;;;;;10.05;4.93;;;;;;;;;;5010886;28;20036;-69
2023/03/18 08:49:22;;;;;;;10.98;5.18;;;;;;;;;;5009601;28;20080;-70
2023/03/18 08:51:47;;;;;;;10.98;5.07;;;;;;;;;;5008409;28;20037;-69
2023/03/18 08:54:13;;;;;;;8.38;4.78;;;;;;;;;;5023647;28;20029;-69
2023/03/18 08:56:39;;;;;;;9.18;4.47;;;;;;;;;;5018501;28;20029;-69
2023/03/18 08:59:04;;;;;;;7.75;4.72;;;;;;;;;;5029169;28;20072;-68
2023/03/18 09:01:30;;;;;;;11.30;5.90;;;;;;;;;;5017683;28;20018;-69
2023/03/18 09:03:57;;;;;;;11.05;5.10;;;;;;;;;;5024427;28;20087;-69
2023/03/18 09:06:23;;;;;;;11.05;5.50;;;;;;;;;;5004810;28;20030;-69
2023/03/18 09:08:49;;;;;;;11.85;5.00;;;;;;;;;;5026831;28;20037;-69
2023/03/18 09:11:15;;;;;;;9.95;4.95;;;;;;;;;;4998473;28;20037;-69
2023/03/18 09:13:40;;;;;;;8.63;4.57;;;;;;;;;;5026329;28;20026;-70
2023/03/18 09:16:07;;;;;;;10.98;4.88;;;;;;;;;;5022547;28;20056;-70
2023/03/18 09:18:34;;;;;;;8.40;4.88;;;;;;;;;;5019051;28;20034;-70
2023/03/18 09:21:00;;;;;;;10.23;4.90;;;;;;;;;;5028669;28;20021;-68
2023/03/18 09:23:27;;;;;;;8.85;4.10;;;;;;;;;;5016982;28;20084;-68
2023/03/18 09:25:53;;;;;;;9.82;4.88;;;;;;;;;;5024491;28;20479;-69
2023/03/18 09:28:19;;;;;;;8.10;5.07;;;;;;;;;;5024052;28;20086;-69
2023/03/18 09:30:45;;;;;;;11.30;4.90;;;;;;;;;;5016650;28;20538;-69
2023/03/18 09:33:10;;;;;;;10.55;4.97;;;;;;;;;;5029186;28;20094;-69
2023/03/18 09:35:38;;;;;;;7.60;4.22;;;;;;;;;;5017541;28;20018;-68
2023/03/18 09:38:03;;;;;;;7.90;5.47;;;;;;;;;;5005430;28;20501;-68
2023/03/18 09:40:36;;;;;;;9.13;5.03;;;;;;;;;;5024941;28;20105;-70
2023/03/18 09:43:26;;;;;;;9.02;4.90;;;;;;;;;;5010037;28;20018;-71
2023/03/18 09:46:04;;;;;;;13.23;5.00;;;;;;;;;;5024744;28;20030;-68
2023/03/18 09:48:40;;;;;;;10.07;5.78;;;;;;;;;;5024571;28;20049;-68
2023/03/18 09:51:18;;;;;;;10.73;4.90;;;;;;;;;;5015686;28;20038;-68
2023/03/18 09:54:04;;;;;;;9.52;5.28;;;;;;;;;;5032137;28;20393;-71
2023/03/18 09:56:33;;;;;;;8.70;5.35;;;;;;;;;;5019761;28;20022;-71
2023/03/18 09:59:16;;;;;;;12.47;5.10;;;;;;;;;;5028632;28;20029;-69
2023/03/18 10:01:45;;;;;;;13.75;5.35;;;;;;;;;;5020655;28;20383;-70
2023/03/18 10:04:22;;;;;;;8.55;4.93;;;;;;;;;;5008251;28;20034;-70
2023/03/18 10:06:52;;;;;;;11.55;5.38;;;;;;;;;;5030946;28;20029;-70
2023/03/18 10:09:27;;;;;;;9.30;5.63;;;;;;;;;;5019372;28;20057;-70
2023/03/18 10:12:04;;;;;;;9.23;4.40;;;;;;;;;;5028458;28;20044;-70
2023/03/18 10:14:46;;;;;;;10.52;5.18;;;;;;;;;;5010848;28;20025;-71
2023/03/18 10:17:17;;;;;;;10.65;5.07;;;;;;;;;;5019375;28;20096;-70
2023/03/18 10:19:57;;;;;;;10.48;5.32;;;;;;;;;;5029496;28;20378;-71
2023/03/18 10:22:57;;;;;;;9.77;4.72;;;;;;;;;;5027393;28;20025;-70
2023/03/18 10:25:39;;;;;;;9.38;4.68;;;;;;;;;;5019298;28;20021;-70
2023/03/18 10:28:44;;;;;;;11.00;5.60;;;;;;;;;;5007758;28;20373;-69
2023/03/18 10:31:16;;;;;;;10.23;5.25;;;;;;;;;;5032045;28;20108;-70
2023/03/18 10:33:56;;;;;;;8.80;5.13;;;;;;;;;;5021469;28;20450;-71
2023/03/18 10:36:44;;;;;;;;;;;;;;;;;;5024653;28;20044;-72
2023/03/18 10:39:15;;;;;;;7.43;4.47;;;;;;;;;;5031227;28;20011;-70
2023/03/18 10:41:42;;;;;;;11.38;5.13;;;;;;;;;;5021337;28;20513;-71
2023/03/18 10:44:23;;;;;;;7.40;4.65;;;;;;;;;;5025622;28;20053;-71
2023/03/18 10:47:02;;;;;;;9.63;4.95;;;;;;;;;;5030481;28;20521;-71
2023/03/18 10:49:31;;;;;;;9.05;4.38;;;;;;;;;;5003837;28;20391;-70
2023/03/18 10:52:17;;;;;;;8.20;4.80;;;;;;;;;;5026882;28;20038;-70
2023/03/18 10:54:49;;;;;;;10.10;5.13;;;;;;;;;;5024117;28;20064;-69
2023/03/18 10:57:16;;;;;;;10.82;5.13;;;;;;;;;;5018640;28;20555;-70
2023/03/18 10:59:46;;;;;;;10.77;5.07;;;;;;;;;;5029132;28;20384;-71
2023/03/18 11:02:24;;;;;;;;;;;;;;;;;;5025490;28;20041;-72
2023/03/18 11:04:55;;;;;;;8.70;4.88;;;;;;;;;;5002103;28;19913;-72
2023/03/18 11:07:24;;;;;;;8.77;5.32;;;;;;;;;;5029751;28;20030;-66
2023/03/18 11:09:50;;;;;;;11.03;5.07;;;;;;;;;;5021393;28;20021;-69
2023/03/18 11:12:30;;;;;;;11.07;5.15;;;;;;;;;;5023267;28;20760;-67
2023/03/18 11:14:56;;;;;;;8.15;5.43;;;;;;;;;;5024258;28;20435;-70
2023/03/18 11:17:34;;;;;;;9.68;4.90;;;;;;;;;;5029390;28;20034;-71
2023/03/18 11:20:06;;;;;;;10.23;5.25;;;;;;;;;;5024988;28;20494;-69
2023/03/18 11:22:33;;;;;;;15.80;5.68;;;;;;;;;;5020125;28;20095;-68
2023/03/18 11:25:22;;;;;;;11.55;5.95;;;;;;;;;;5030997;28;20048;-69
2023/03/18 11:27:50;;;;;;;18.35;7.70;;;;;;;;;;5023257;28;20037;-68
2023/03/18 11:30:25;;;;;;;11.82;5.38;;;;;;;;;;5021977;28;20033;-68
2023/03/18 11:33:03;;;;;;;9.35;5.13;;;;;;;;;;5030998;28;20025;-68
2023/03/18 11:35:47;;;;;;;10.40;5.15;;;;;;;;;;5020628;28;20534;-73
2023/03/18 11:38:27;;;;;;;12.50;5.90;;;;;;;;;;5022305;28;20113;-72
2023/03/18 11:41:13;;;;;;;9.60;5.47;;;;;;;;;;5030773;28;20061;-68
2023/03/18 11:43:52;;;;;;;9.15;5.35;;;;;;;;;;5021459;28;20055;-72
2023/03/18 11:46:21;;;;;;;9.60;5.50;;;;;;;;;;5021075;28;20087;-72
2023/03/18 11:48:48;;;;;;;9.25;4.95;;;;;;;;;;5030630;28;20059;-72
2023/03/18 11:51:35;;;;;;;12.32;5.65;;;;;;;;;;5017959;28;20517;-72
2023/03/18 11:54:21;;;;;;;8.93;5.55;;;;;;;;;;5033896;28;20364;-70
2023/03/18 11:56:58;;;;;;;10.43;4.95;;;;;;;;;;5017555;28;20017;-70
2023/03/18 11:59:45;;;;;;;9.45;4.70;;;;;;;;;;5028427;28;20079;-68
2023/03/18 12:02:44;;;;;;;11.82;5.40;;;;;;;;;;5025956;28;20035;-70
2023/03/18 12:05:18;;;;;;;14.00;7.10;;;;;;;;;;5017401;28;20557;-69
2023/03/18 12:08:09;;;;;;;13.05;5.30;;;;;;;;;;5025619;28;20025;-70
2023/03/18 12:10:50;;;;;;;10.55;5.18;;;;;;;;;;5028842;28;20528;-70
2023/03/18 12:13:52;;;;;;;9.15;5.10;;;;;;;;;;5002824;28;20026;-70
2023/03/18 12:16:39;;;;;;;10.80;5.45;;;;;;;;;;5020988;28;20056;-70
2023/03/18 12:19:41;;;;;;;7.97;4.97;;;;;;;;;;5029964;28;20384;-70
2023/03/18 12:22:17;;;;;;;8.73;5.20;;;;;;;;;;5024907;28;20026;-70
2023/03/18 12:24:57;;;;;;;10.10;5.45;;;;;;;;;;5016734;28;20030;-67
2023/03/18 12:27:30;;;;;;;9.40;5.45;;;;;;;;;;5004291;28;20508;-70
2023/03/18 12:29:56;;;;;;;9.23;5.10;;;;;;;;;;5023350;28;20044;-68
2023/03/18 12:32:44;;;;;;;9.75;4.78;;;;;;;;;;5026543;28;20033;-69
2023/03/18 12:35:17;;;;;;;10.18;5.28;;;;;;;;;;5000754;28;20036;-70
2023/03/18 12:37:42;;;;;;;13.18;5.22;;;;;;;;;;5025355;28;20486;-68
2023/03/18 12:40:26;;;;;;;10.43;5.20;;;;;;;;;;5020515;28;20068;-70
2023/03/18 12:43:03;;;;;;;9.35;4.97;;;;;;;;;;5016395;28;20057;-69
2023/03/18 12:45:49;;;;;;;10.73;5.18;;;;;;;;;;5005556;28;20028;-69
2023/03/18 12:48:31;;;;;;;7.55;4.93;;;;;;;;;;5020556;28;20040;-69
2023/03/18 12:51:06;;;;;;;9.48;4.97;;;;;;;;;;5029274;28;20033;-69
2023/03/18 12:53:44;;;;;;;9.43;5.25;;;;;;;;;;5025409;28;20029;-69
2023/03/18 12:56:15;;;;;;;11.68;5.25;;;;;;;;;;5021463;28;20069;-69
2023/03/18 12:59:08;;;;;;;9.18;4.95;;;;;;;;;;5010922;28;20120;-69
2023/03/18 13:01:46;;;;;;;9.15;5.20;;;;;;;;;;5006572;28;20021;-69
2023/03/18 13:04:18;;;;;;;8.73;5.25;;;;;;;;;;5020993;28;20390;-69
2023/03/18 13:06:56;;;;;;;10.15;5.43;;;;;;;;;;5029086;28;20028;-69
2023/03/18 13:09:50;;;;;;;12.65;5.28;;;;;;;;;;5002899;28;20021;-69
2023/03/18 13:12:27;;;;;;;11.73;6.20;;;;;;;;;;5020034;28;20499;-69
2023/03/18 13:15:00;;;;;;;10.98;5.78;;;;;;;;;;5028900;28;20037;-70
2023/03/18 13:17:31;;;;;;;10.85;5.88;;;;;;;;;;5018221;28;20053;-70
2023/03/18 13:20:02;;;;;;;14.80;5.72;;;;;;;;;;5022948;28;20394;-70
2023/03/18 13:22:44;;;;;;;11.60;5.72;;;;;;;;;;5008224;28;20051;-70
2023/03/18 13:25:35;;;;;;;11.85;6.30;;;;;;;;;;5021449;28;20121;-69
2023/03/18 13:28:07;;;;;;;10.50;6.05;;;;;;;;;;5028493;28;20091;-70
2023/03/18 13:30:48;;;;;;;12.55;5.55;;;;;;;;;;5017914;28;20022;-67
2023/03/18 13:33:23;;;;;;;13.18;5.57;;;;;;;;;;5021085;28;20029;-69
2023/03/18 13:36:11;;;;;;;10.73;5.32;;;;;;;;;;5027523;28;20033;-70
2023/03/18 13:39:15;;;;;;;11.13;5.30;;;;;;;;;;5004898;28;20030;-68
2023/03/18 13:42:18;;;;;;;9.13;5.43;;;;;;;;;;5016469;28;20096;-70
2023/03/18 13:45:23;;;;;;;9.75;5.72;;;;;;;;;;5006775;28;20083;-70
2023/03/18 13:48:07;;;;;;;11.52;6.30;;;;;;;;;;5016163;28;20041;-68
2023/03/18 13:50:42;;;;;;;11.43;5.30;;;;;;;;;;5003568;28;20029;-68
2023/03/18 13:53:27;;;;;;;10.40;5.47;;;;;;;;;;5030699;28;20375;-69
2023/03/18 13:55:56;;;;;;;9.35;5.30;;;;;;;;;;5031678;28;20026;-68
2023/03/18 13:58:26;;;;;;;9.02;5.75;;;;;;;;;;5006239;28;20100;-68
2023/03/18 14:00:55;;;;;;;11.23;5.55;;;;;;;;;;4986265;28;20132;-69
2023/03/18 14:03:50;;;;;;;10.30;5.95;;;;;;;;;;5005912;28;20017;-69
2023/03/18 14:06:15;;;;;;;13.20;5.75;;;;;;;;;;4995683;28;20038;-69
2023/03/18 14:08:41;;;;;;;12.77;5.50;;;;;;;;;;5005337;28;20036;-69
2023/03/18 14:11:16;;;;;;;10.27;5.40;;;;;;;;;;5021720;28;20025;-68
2023/03/18 14:13:43;;;;;;;10.20;5.60;;;;;;;;;;5017151;28;20084;-69
2023/03/18 14:16:10;;;;;;;9.93;5.30;;;;;;;;;;5028552;28;20036;-68
2023/03/18 14:18:36;;;;;;;12.60;5.90;;;;;;;;;;5017898;28;20022;-68
2023/03/18 14:21:07;;;;;;;9.93;5.25;;;;;;;;;;5022460;28;20333;-69
2023/03/18 14:23:43;;;;;;;10.68;5.88;;;;;;;;;;5025869;28;20045;-69
2023/03/18 14:26:20;;;;;;;14.80;5.70;;;;;;;;;;5031558;28;20033;-70
2023/03/18 14:28:52;;;;;;;13.85;6.30;;;;;;;;;;4997917;28;20488;-70
2023/03/18 14:31:57;;;;;;;12.10;6.05;;;;;;;;;;5013951;28;20029;-69
2023/03/18 14:34:28;;;;;;;10.23;5.80;;;;;;;;;;4930818;29;20043;-70
2023/03/18 14:36:54;;;;;;;12.77;5.97;;;;;;;;;;4931186;29;20519;-69
2023/03/18 14:39:37;;;;;;;11.52;5.78;;;;;;;;;;4930163;29;20119;-70
2023/03/18 14:42:12;;;;;;;10.13;6.15;;;;;;;;;;4930436;29;20038;-69
2023/03/18 14:44:52;;;;;;;10.77;5.93;;;;;;;;;;4930741;29;20043;-68
2023/03/18 14:47:38;;;;;;;13.10;6.15;;;;;;;;;;4932307;29;20043;-69
2023/03/18 14:50:26;;;;;;;10.10;5.97;;;;;;;;;;4934474;29;20411;-69
2023/03/18 14:53:04;;;;;;;12.65;5.68;;;;;;;;;;4935382;29;20052;-69